METAR Data
IDs: Format: Raw Decoded Include TAF

Data at: 0623 UTC 23 Feb 2019

PAPG 230556Z 17004KT 10SM BKN032 M03/M04 A3002 RMK AO2 SLP169 T10331044 10028 21033 53034
PAPG 230456Z 19004KT 10SM CLR M03/M04 A2999 RMK AO2 SLP158 T10281044
PAPG 230356Z 00000KT 10SM BKN041 M01/M05 A2995 RMK AO2 SLP146 T10061050
PAPG 230256Z 13005KT 10SM SCT038 M01/M04 A2992 RMK AO2 SLP135 T10061039 53027
PAPG 230156Z 23003KT 10SM SCT040 M01/M02 A2989 RMK AO2 SLP124 T10111022
PAPG 230056Z 00000KT 10SM SCT030 02/M06 A2986 RMK AO2 SLP115 T00221056
PAPG 222356Z VRB03KT 10SM SCT028 03/M04 A2984 RMK AO2 SLP108 T00281039 10039 21006 51021
PAPG 222256Z 00000KT 10SM SCT008 SCT030 03/M02 A2982 RMK AO2 SLP103 T00331022
PAPG 222156Z 21004KT 10SM SCT018 02/M01 A2980 RMK AO2 SLP094 T00221006
PAPG 222056Z 23003KT 10SM CLR 04/02 A2978 RMK AO2 SLP087 T00390017 51026
PAPG 221956Z 00000KT 10SM SCT018 04/01 A2976 RMK AO2 SLP080 T00390006
PAPG 221905Z 09003KT 10SM SCT018 02/01 A2974 RMK AO2
PAPG 221856Z 00000KT 10SM BKN018 02/01 A2973 RMK AO2 SLP071 T00170011
PAPG 221841Z 00000KT 10SM BKN018 03/02 A2973 RMK AO2
PAPG 221756Z 28004KT 10SM FEW009 SCT014 00/M01 A2970 RMK AO2 SLP060 60003 T00001006 10006 21006 51017
PAPG 221754Z 27003KT 10SM FEW009 SCT014 00/M01 A2970 RMK AO2
PAPG 221721Z 28004KT 10SM FEW004 OVC014 00/00 A2968 RMK AO2
PAPG 221703Z 24004KT 10SM OVC014 00/M01 A2967 RMK AO2
PAPG 221656Z 26004KT 10SM SCT017 BKN026 00/M01 A2967 RMK AO2 SLP050 T00001006
PAPG 221556Z 00000KT 10SM SCT017 BKN026 00/M01 A2965 RMK AO2 SNE02 SLP043 P0000 T00001006
PAPG 221523Z 28004KT 10SM BKN015 00/M01 A2964 RMK AO2 SNE02 P0000
PAPG 221511Z 00000KT 10SM SCT010 SCT017 00/M01 A2963 RMK AO2 SNE02 P0000
PAPG 221456Z AUTO 00000KT 9SM -SN BKN010 00/M01 A2963 RMK AO2 CIG 007V013 SLP035 P0000 60003 T00001006 53020
PAPG 221425Z AUTO 00000KT 9SM -SN BKN010 OVC046 00/M01 A2961 RMK AO2 CIG 006V012 P0000
PAPG 221404Z AUTO 00000KT 9SM -SN SCT008 OVC039 00/00 A2960 RMK AO2 P0000
PAPG 221356Z AUTO 00000KT 9SM -SN BKN037 OVC044 00/00 A2960 RMK AO2 SLP025 P0001 T00000000
PAPG 221326Z AUTO 14004KT 10SM -SN FEW006 BKN046 OVC055 00/00 A2958 RMK AO2 P0001
PAPG 221256Z AUTO 00000KT 6SM -SN BR SCT006 OVC021 00/00 A2957 RMK AO2 SLP015 P0002 T00000000
PAPG 221254Z AUTO 00000KT 6SM -SN BR SCT006 OVC021 00/00 A2957 RMK AO2 P0002
PAPG 221156Z AUTO 00000KT 4SM -SN BR BKN006 OVC011 00/00 A2955 RMK AO2 SLP008 P0005 60012 70080 T00000000 10006 20000 51013
PAPG 221153Z AUTO 00000KT 4SM -SN BR SCT006 OVC011 00/00 A2955 RMK AO2 P0004
PAPG 221124Z AUTO 04003KT 2 1/2SM -SN BR FEW004 OVC011 00/00 A2954 RMK AO2 P0002
PAPG 221109Z AUTO 04004KT 2SM -SN BR OVC009 00/00 A2953 RMK AO2 CIG 005V012 P0001
PAPG 221056Z AUTO 04004KT 2SM -SN BR FEW004 OVC011 00/00 A2953 RMK AO2 VIS 1 1/2V3 CIG 007V014 SLP002 P0002 T00000000
PAPG 221046Z AUTO 03006KT 2 1/2SM -SN BR BKN006 OVC011 00/00 A2952 RMK AO2 CIG 003V009 P0001
PAPG 221029Z AUTO 03006KT 4SM -SN BR OVC006 00/00 A2952 RMK AO2 CIG 002V011 P0001
PAPG 221017Z AUTO 04007KT 3SM -SN BR BKN004 OVC022 00/00 A2951 RMK AO2 CIG 002V007 P0000
PAPG 221008Z AUTO 05006KT 4SM -SN BR SCT004 OVC022 01/00 A2951 RMK AO2 P0000
PAPG 220956Z AUTO 07006KT 8SM -SN OVC022 01/00 A2951 RMK AO2 SLP995 P0001 T00060000
PAPG 220856Z AUTO 00000KT 10SM -SN OVC022 01/00 A2949 RMK AO2 SLP990 P0000 60004 T00060000 400111006 53004
PAPG 220756Z AUTO 00000KT 10SM -SN FEW017 BKN022 OVC050 00/00 A2948 RMK AO2 SLP985 P0001 T00000000
PAPG 220656Z 23003KT 6SM -SN BR FEW002 SCT010 OVC017 00/00 A2948 RMK AO2 RAE04 SLP986 P0003 T00000000
PAPG 220646Z 01003KT 4SM -SN BR FEW004 BKN010 OVC016 00/00 A2948 RMK AO2 RAE04 CIG 008V012 P0003
PAPG 220638Z 03005KT 3SM -SN BR BKN002 OVC010 00/00 A2948 RMK AO2 RAE04 CIG 001V006 P0003
PAPG 220618Z 29003KT 2SM -SN BR BKN008 OVC013 00/00 A2948 RMK AO2 RAE04 CIG 005V011 P0001
PAPG 220603Z 00000KT 5SM -SNRA BR BKN008 BKN015 OVC021 00/00 A2948 RMK AO2 P0000
PAPG 220556Z 00000KT 7SM -SNRA SCT010 BKN015 OVC021 00/00 A2948 RMK AO2 UPE03RAB03SNB29 SLP986 P0001 60022 T00000000 10006 20000 55005
PAPG 220523Z 00000KT 10SM SCT015 BKN025 OVC055 00/00 A2948 RMK AO2 UPE03RAB03E21 P0000
PAPG 220456Z 28003KT 10SM UP SCT025 BKN035 OVC050 01/00 A2948 RMK AO2 UPB54 SLP985 P0000 T00060000
PAPG 220356Z 00000KT 10SM FEW011 SCT037 BKN080 00/00 A2948 RMK AO2 RAE51SNE51 SLP986 P0002 T00000000
PAPG 220337Z 00000KT 10SM -SNRA SCT029 BKN037 BKN065 00/00 A2949 RMK AO2 P0002
PAPG 220256Z 00000KT 10SM -SNRA FEW008 SCT019 BKN024 01/00 A2949 RMK AO2 RAB39 SLP991 P0006 60019 T00060000 56012
PAPG 220238Z 00000KT 10SM -SN BR SCT008 BKN019 OVC024 01/00 A2949 RMK AO2 P0004
PAPG 220228Z VRB03KT 9SM -SN BR SCT006 BKN009 OVC024 01/00 A2950 RMK AO2 CIG 007V011 P0004
PAPG 220217Z 05004KT 6SM -SN BR BKN004 OVC008 00/00 A2950 RMK AO2 CIG 002V006 P0003
PAPG 220203Z 00000KT 6SM -SN BR BKN002 BKN019 OVC025 00/00 A2950 RMK AO2 CIG 002V007 P0001
PAPG 220156Z VRB04KT 1 1/4SM -SN BR BKN002 BKN019 OVC025 00/00 A2950 RMK AO2 SLP992 P0007 T00000000
PAPG 220142Z 12003KT 1SM -SN BR BKN004 BKN010 OVC023 01/00 A2950 RMK AO2 CIG 003V006 P0005
PAPG 220131Z 00000KT 3/4SM -SN BR BKN004 OVC010 00/00 A2950 RMK AO2 CIG 003V007 P0002
PAPG 220129Z 00000KT 1SM -SN BR BKN006 OVC011 00/00 A2950 RMK AO2 CIG 003V009 P0002
PAPG 220056Z 00000KT 3/4SM -SN BR OVC006 00/00 A2951 RMK AO2 CIG 003V008 SLP997 P0006 T00000000
PAPG 220044Z 32003KT 3/4SM -SN BR OVC006 00/00 A2952 RMK AO2 CIG 004V009 P0005
PAPG 220029Z 29003KT 1SM -SN BR OVC008 00/00 A2952 RMK AO2 CIG 004V010 P0004
PAPG 212356Z 00000KT 1 1/2SM -SN BR OVC008 01/00 A2953 RMK AO2 VIS 1 1/4V2 SLP002 P0010 60038 T00060000 10011 20006 56049
PAPG 212344Z 02004KT 1 1/4SM -SN BR OVC008 01/00 A2953 RMK AO2 P0007
PAPG 212339Z 05003KT 3/4SM -SN BR OVC008 01/00 A2953 RMK AO2 P0007
PAPG 212331Z 04004KT 1SM -SN BR OVC008 01/00 A2954 RMK AO2 P0006
PAPG 212256Z 04005KT 1 1/4SM -SN BR OVC008 01/00 A2956 RMK AO2 VIS 3/4V2 CIG 005V010 SLP015 P0008 T00060000
PAPG 212245Z 03003KT 1SM -SN BR OVC008 01/00 A2957 RMK AO2 VIS 3/4V1 3/4 CIG 005V011 P0007
PAPG 212156Z 03003KT 1 1/4SM -SN BR OVC012 01/00 A2962 RMK AO2 SLP031 P0007 T00060000
PAPG 212134Z 00000KT 1 1/2SM -SN BR OVC012 01/00 A2964 RMK AO2 P0005
PAPG 212125Z 03003KT 1SM -SN BR OVC012 01/00 A2964 RMK AO2 P0004
PAPG 212056Z 03003KT 1 1/4SM -SN BR OVC012 01/00 A2967 RMK AO2 SLP052 P0005 60013 T00110000 58037
PAPG 212010Z 01003KT 1 1/4SM -SN BR OVC014 01/00 A2972 RMK AO2 P0001
PAPG 211956Z 01005KT 1SM -SN BR OVC010 01/00 A2973 RMK AO2 SLP070 P0006 T00060000
PAPG 211954Z 35003KT 1SM -SN BR OVC010 01/00 A2973 RMK AO2 P0006
PAPG 211937Z VRB03KT 1 1/4SM -SN BR OVC010 01/00 A2974 RMK AO2 P0004
PAPG 211911Z 05004KT 1SM -SN BR OVC012 01/00 A2976 RMK AO2 PRESFR P0002
PAPG 211856Z 07003KT 1 1/4SM -SN BR OVC014 01/00 A2978 RMK AO2 SLP089 P0002 T00060000
PAPG 211848Z 36004KT 1 1/4SM -SN BR OVC014 01/00 A2979 RMK AO2 P0002
PAPG 211840Z 36004KT 1 1/2SM -SN BR OVC016 01/00 A2980 RMK AO2 P0002